Time;durP1;ratioP1;P1;durP2;ratioP2;P2;SDS_P1;SDS_P2;PMS_P1;PMS_P2;Temp;Humidity;BMP_temperature;BMP_pressure;BME280_temperature;BME280_humidity;BME280_pressure;Samples;Min_cycle;Max_cycle;Signal;HPM_P1;HPM_P2
2022/04/13 00:04:25;;;;;;;;;;;9.80;59.40;;;;;;5029950;28;81725;-52
2022/04/13 00:09:54;;;;;;;;;;;9.70;59.40;;;;;;5029822;28;81675;-52
2022/04/13 00:15:22;;;;;;;;;;;9.70;59.40;;;;;;5032380;28;81878;-52
2022/04/13 00:20:51;;;;;;;;;;;9.70;59.50;;;;;;5028706;28;82546;-55
2022/04/13 00:26:19;;;;;;;;;;;9.60;59.40;;;;;;5029641;28;81645;-51
2022/04/13 00:31:47;;;;;;;;;;;9.60;59.50;;;;;;5029410;28;81675;-53
2022/04/13 00:37:16;;;;;;;;;;;9.60;59.40;;;;;;5029220;28;81626;-55
2022/04/13 00:42:44;;;;;;;;;;;9.60;59.40;;;;;;5029126;28;81711;-53
2022/04/13 00:48:24;;;;;;;;;;;9.50;59.40;;;;;;5026794;28;82735;-52
2022/04/13 00:53:55;;;;;;;;;;;9.50;59.50;;;;;;5029143;28;81727;-53
2022/04/13 00:59:24;;;;;;;;;;;9.50;59.50;;;;;;5028869;28;81969;-54
2022/04/13 01:04:53;;;;;;;;;;;9.40;59.50;;;;;;5031434;28;81682;-53
2022/04/13 01:10:22;;;;;;;;;;;9.40;59.40;;;;;;5028925;28;81668;-51
2022/04/13 01:15:51;;;;;;;;;;;9.40;59.40;;;;;;5028140;28;82851;-51
2022/04/13 01:21:34;;;;;;;;;;;9.30;59.40;;;;;;5028534;28;81916;-51
2022/04/13 01:27:02;;;;;;;;;;;9.30;59.50;;;;;;5028627;28;81659;-51
2022/04/13 01:32:31;;;;;;;;;;;9.30;59.50;;;;;;5028642;28;81694;-52
2022/04/13 01:38:00;;;;;;;;;;;9.20;59.50;;;;;;5028388;28;81716;-51
2022/04/13 01:43:28;;;;;;;;;;;9.20;59.40;;;;;;5027458;28;82969;-52
2022/04/13 01:48:57;;;;;;;;;;;9.20;59.60;;;;;;5021074;28;81930;-54
2022/04/13 01:54:25;;;;;;;;;;;9.20;59.50;;;;;;5030958;28;81825;-52
2022/04/13 01:59:54;;;;;;;;;;;9.10;60.10;;;;;;5028162;28;81670;-53
2022/04/13 02:05:23;;;;;;;;;;;9.10;59.50;;;;;;5027794;28;81695;-51
2022/04/13 02:10:51;;;;;;;;;;;9.00;59.60;;;;;;5027465;28;82595;-53
2022/04/13 02:16:20;;;;;;;;;;;9.00;59.50;;;;;;5030548;28;81595;-55
2022/04/13 02:21:49;;;;;;;;;;;9.00;59.60;;;;;;5027732;28;81691;-51
2022/04/13 02:27:17;;;;;;;;;;;8.90;59.50;;;;;;5027350;28;81858;-51
2022/04/13 02:32:46;;;;;;;;;;;8.90;59.50;;;;;;5027599;28;81648;-51
2022/04/13 02:38:16;;;;;;;;;;;8.90;59.50;;;;;;5026817;28;82639;-51
2022/04/13 02:43:45;;;;;;;;;;;8.90;59.60;;;;;;5027415;28;81651;-51
2022/04/13 02:49:14;;;;;;;;;;;8.80;59.40;;;;;;5024681;28;81935;-51
2022/04/13 02:54:42;;;;;;;;;;;8.80;59.50;;;;;;5027333;28;81700;-51
2022/04/13 03:00:11;;;;;;;;;;;8.70;59.40;;;;;;5027267;28;81691;-51
2022/04/13 03:05:40;;;;;;;;;;;8.80;59.50;;;;;;5029135;28;82922;-50
2022/04/13 03:11:08;;;;;;;;;;;8.70;59.40;;;;;;5026936;28;81625;-51
2022/04/13 03:16:37;;;;;;;;;;;8.60;59.50;;;;;;5026924;28;81718;-50
2022/04/13 03:22:05;;;;;;;;;;;8.60;59.50;;;;;;5030411;28;81709;-51
2022/04/13 03:27:33;;;;;;;;;;;8.60;59.60;;;;;;5030160;28;81715;-51
2022/04/13 03:33:02;;;;;;;;;;;8.60;59.60;;;;;;5029503;28;82908;-51
2022/04/13 03:38:31;;;;;;;;;;;8.50;59.50;;;;;;5030342;28;81663;-51
2022/04/13 03:43:59;;;;;;;;;;;8.50;59.50;;;;;;5030271;28;81696;-51
2022/04/13 03:49:28;;;;;;;;;;;8.50;59.60;;;;;;5028034;28;82003;-52
2022/04/13 03:54:56;;;;;;;;;;;8.40;59.70;;;;;;5032623;28;81727;-51
2022/04/13 04:00:26;;;;;;;;;;;8.40;59.60;;;;;;5029237;28;82636;-52
2022/04/13 04:08:28;;;;;;;;;;;8.40;59.50;;;;;;5048844;28;81785;-51
2022/04/13 04:10:54;;;;;;;;;;;8.30;59.60;;;;;;5051681;28;82707;-51
2022/04/13 04:13:20;;;;;;;;;;;8.30;59.70;;;;;;5052063;28;81810;-51
2022/04/13 04:15:45;;;;;;;;;;;8.30;59.70;;;;;;5051966;28;81898;-51
2022/04/13 04:18:11;;;;;;;;;;;8.30;59.70;;;;;;5054622;28;83213;-51
2022/04/13 04:20:36;;;;;;;;;;;8.30;59.60;;;;;;5052073;28;81749;-51
2022/04/13 04:23:02;;;;;;;;;;;8.20;59.70;;;;;;5051350;28;83635;-52
2022/04/13 04:25:27;;;;;;;;;;;8.20;59.70;;;;;;5050983;28;82744;-52
2022/04/13 04:27:53;;;;;;;;;;;8.20;59.60;;;;;;5051490;28;84106;-51
2022/04/13 04:30:18;;;;;;;;;;;8.20;59.60;;;;;;5050379;27;83713;-52
2022/04/13 04:32:44;;;;;;;;;;;8.20;59.60;;;;;;5051622;28;81824;-51
2022/04/13 04:35:10;;;;;;;;;;;8.20;59.50;;;;;;5051959;28;81895;-51
2022/04/13 04:37:36;;;;;;;;;;;8.10;59.60;;;;;;5054012;28;83467;-53
2022/04/13 04:40:02;;;;;;;;;;;8.20;59.60;;;;;;5051472;28;82610;-53
2022/04/13 04:42:28;;;;;;;;;;;8.10;59.60;;;;;;5051772;28;81839;-51
2022/04/13 04:44:57;;;;;;;;;;;8.10;59.60;;;;;;5051420;28;81845;-51
2022/04/13 04:47:25;;;;;;;;;;;8.10;59.80;;;;;;5051537;28;81740;-52
2022/04/13 04:49:52;;;;;;;;;;;8.10;60.30;;;;;;5050639;28;82805;-53
2022/04/13 04:52:17;;;;;;;;;;;8.10;59.70;;;;;;5051615;28;81907;-51
2022/04/13 04:54:43;;;;;;;;;;;8.10;59.60;;;;;;5051182;28;83191;-51
2022/04/13 04:57:09;;;;;;;;;;;8.10;59.70;;;;;;5050967;28;83644;-51
2022/04/13 04:59:34;;;;;;;;;;;8.00;59.80;;;;;;5053888;28;81884;-53
2022/04/13 05:02:00;;;;;;;;;;;8.10;59.70;;;;;;5050991;28;82514;-51
2022/04/13 05:04:26;;;;;;;;;;;8.00;59.60;;;;;;5051077;28;81834;-53
2022/04/13 05:06:51;;;;;;;;;;;8.00;59.80;;;;;;5051197;28;82887;-52
2022/04/13 05:09:22;;;;;;;;;;;8.00;59.70;;;;;;5050968;28;81831;-51
2022/04/13 05:11:47;;;;;;;;;;;8.00;59.60;;;;;;5050598;28;81868;-51
2022/04/13 05:14:13;;;;;;;;;;;8.00;59.60;;;;;;5050161;28;82795;-52
2022/04/13 05:16:38;;;;;;;;;;;8.00;59.70;;;;;;5050596;28;83229;-52
2022/04/13 05:19:04;;;;;;;;;;;8.00;59.60;;;;;;5050839;28;81934;-53
2022/04/13 05:21:30;;;;;;;;;;;8.00;59.70;;;;;;5053625;28;82082;-51
2022/04/13 05:23:55;;;;;;;;;;;8.00;59.70;;;;;;5051046;28;81758;-51
2022/04/13 05:26:21;;;;;;;;;;;8.00;59.50;;;;;;5050687;28;82131;-51
2022/04/13 05:28:50;;;;;;;;;;;8.00;59.50;;;;;;5046791;28;87713;-53
2022/04/13 05:31:16;;;;;;;;;;;8.00;59.50;;;;;;5048093;28;86139;-50
2022/04/13 05:33:41;;;;;;;;;;;8.00;59.50;;;;;;5047222;28;86863;-50
2022/04/13 05:36:07;;;;;;;;;;;8.00;59.50;;;;;;5047140;28;86777;-50
2022/04/13 05:38:33;;;;;;;;;;;8.00;59.50;;;;;;5046408;28;87775;-50
2022/04/13 05:40:59;;;;;;;;;;;8.00;59.50;;;;;;5047330;28;88180;-51
2022/04/13 05:43:24;;;;;;;;;;;8.00;59.60;;;;;;5049719;27;87513;-52
2022/04/13 05:45:50;;;;;;;;;;;8.00;59.50;;;;;;5047492;28;87165;-52
2022/04/13 05:48:16;;;;;;;;;;;8.00;59.50;;;;;;5046559;28;88618;-51
2022/04/13 05:50:41;;;;;;;;;;;8.00;59.60;;;;;;5047295;28;86840;-50
2022/04/13 05:53:07;;;;;;;;;;;8.00;59.50;;;;;;5047000;28;88372;-52
2022/04/13 05:55:33;;;;;;;;;;;8.00;59.50;;;;;;5047052;28;87512;-51
2022/04/13 05:57:58;;;;;;;;;;;8.00;59.50;;;;;;5046708;28;87101;-51
2022/04/13 06:00:24;;;;;;;;;;;8.00;59.50;;;;;;5047069;28;87217;-52
2022/04/13 06:02:50;;;;;;;;;;;8.00;59.50;;;;;;5045768;28;89878;-52
2022/04/13 06:05:15;;;;;;;;;;;8.00;59.50;;;;;;5049643;28;87200;-51
2022/04/13 06:07:42;;;;;;;;;;;8.10;59.60;;;;;;5045793;28;87602;-51
2022/04/13 06:10:08;;;;;;;;;;;8.10;59.50;;;;;;5046784;28;86975;-51
2022/04/13 06:12:34;;;;;;;;;;;8.10;59.50;;;;;;5046655;28;87039;-51
2022/04/13 06:15:06;;;;;;;;;;;8.10;59.50;;;;;;5046114;28;88193;-51
2022/04/13 06:17:31;;;;;;;;;;;8.10;59.60;;;;;;5046571;28;86942;-50
2022/04/13 06:19:57;;;;;;;;;;;8.10;59.60;;;;;;5047182;28;87855;-51
2022/04/13 06:22:22;;;;;;;;;;;8.10;59.60;;;;;;5046329;28;87425;-51
2022/04/13 06:24:51;;;;;;;;;;;8.00;59.50;;;;;;5047015;28;87192;-50
2022/04/13 06:27:20;;;;;;;;;;;8.10;59.60;;;;;;5417358;22;88945;-51
2022/04/13 06:29:46;;;;;;;;;;;8.10;59.70;;;;;;5046867;28;86852;-50
2022/04/13 06:32:12;;;;;;;;;;;8.10;59.70;;;;;;5046884;28;87405;-51
2022/04/13 06:34:38;;;;;;;;;;;8.10;59.70;;;;;;5046568;28;87563;-51
2022/04/13 06:37:04;;;;;;;;;;;8.10;59.60;;;;;;5046816;28;86845;-50
2022/04/13 06:39:30;;;;;;;;;;;8.10;59.50;;;;;;5046987;28;87080;-51
2022/04/13 06:41:56;;;;;;;;;;;8.10;59.50;;;;;;5046267;28;87642;-50
2022/04/13 06:44:21;;;;;;;;;;;8.10;59.60;;;;;;5047200;28;86128;-50
2022/04/13 06:46:47;;;;;;;;;;;8.10;59.50;;;;;;5049149;28;87092;-50
2022/04/13 06:49:12;;;;;;;;;;;8.10;59.50;;;;;;5046632;28;87396;-51
2022/04/13 06:51:38;;;;;;;;;;;8.10;59.50;;;;;;5046205;28;87844;-50
2022/04/13 06:54:04;;;;;;;;;;;8.10;59.50;;;;;;5045700;27;87612;-51
2022/04/13 06:56:29;;;;;;;;;;;8.10;59.60;;;;;;5046562;28;86877;-50
2022/04/13 06:58:55;;;;;;;;;;;8.10;59.60;;;;;;5046430;28;87238;-50
2022/04/13 07:01:20;;;;;;;;;;;8.10;59.70;;;;;;5046039;28;87621;-50
2022/04/13 07:03:46;;;;;;;;;;;8.10;59.60;;;;;;5046641;28;87008;-50
2022/04/13 07:06:11;;;;;;;;;;;8.10;59.60;;;;;;5046271;28;88037;-52
2022/04/13 07:08:37;;;;;;;;;;;8.10;59.70;;;;;;5049207;28;86966;-50
2022/04/13 07:11:03;;;;;;;;;;;8.10;59.70;;;;;;5046448;28;87117;-50
2022/04/13 07:13:29;;;;;;;;;;;8.10;59.60;;;;;;5045887;28;88806;-50
2022/04/13 07:15:54;;;;;;;;;;;8.10;59.60;;;;;;5045586;28;87983;-50
2022/04/13 07:18:20;;;;;;;;;;;8.10;59.70;;;;;;5046071;28;88401;-50
2022/04/13 07:20:45;;;;;;;;;;;8.10;59.60;;;;;;5045717;28;88681;-50
2022/04/13 07:23:11;;;;;;;;;;;8.10;59.60;;;;;;5046155;28;86783;-53
2022/04/13 07:25:36;;;;;;;;;;;8.10;59.70;;;;;;5046187;28;86996;-54
2022/04/13 07:28:02;;;;;;;;;;;8.10;59.70;;;;;;5045356;28;88639;-53
2022/04/13 07:30:28;;;;;;;;;;;8.10;59.90;;;;;;5049093;28;86824;-51
2022/04/13 07:33:01;;;;;;;;;;;8.10;59.90;;;;;;5046302;28;86700;-51
2022/04/13 07:35:27;;;;;;;;;;;8.10;59.80;;;;;;5046035;28;86797;-50
2022/04/13 07:37:52;;;;;;;;;;;8.10;59.80;;;;;;5046316;28;87124;-51
2022/04/13 07:40:19;;;;;;;;;;;8.10;59.70;;;;;;5044986;28;88598;-50
2022/04/13 07:42:44;;;;;;;;;;;8.10;59.60;;;;;;5045909;28;87073;-51
2022/04/13 07:45:10;;;;;;;;;;;8.20;59.60;;;;;;5045952;28;87672;-50
2022/04/13 07:47:36;;;;;;;;;;;8.20;59.60;;;;;;5045301;28;87557;-54
2022/04/13 07:50:02;;;;;;;;;;;8.10;59.70;;;;;;5045772;28;86967;-52
2022/04/13 07:52:31;;;;;;;;;;;8.20;59.70;;;;;;5048498;28;87802;-50
2022/04/13 07:54:57;;;;;;;;;;;8.20;59.70;;;;;;5045688;28;86995;-50
2022/04/13 07:57:23;;;;;;;;;;;8.20;59.70;;;;;;5046119;28;87813;-50
2022/04/13 07:59:48;;;;;;;;;;;8.20;59.70;;;;;;5045212;28;87818;-50
2022/04/13 08:02:17;;;;;;;;;;;8.20;59.70;;;;;;5046012;28;87007;-50
2022/04/13 08:04:43;;;;;;;;;;;8.20;59.70;;;;;;5045347;27;87750;-51
2022/04/13 08:07:09;;;;;;;;;;;8.20;59.60;;;;;;5048256;28;88444;-50
2022/04/13 08:09:36;;;;;;;;;;;8.20;59.70;;;;;;5049216;28;87143;-50
2022/04/13 08:12:03;;;;;;;;;;;8.20;59.70;;;;;;5048952;28;87864;-50
2022/04/13 08:14:28;;;;;;;;;;;8.20;59.70;;;;;;5051444;28;88476;-50
2022/04/13 08:16:54;;;;;;;;;;;8.20;59.60;;;;;;5049112;28;86866;-50
2022/04/13 08:19:20;;;;;;;;;;;8.20;59.50;;;;;;5048464;28;88591;-50
2022/04/13 08:21:45;;;;;;;;;;;8.20;59.50;;;;;;5049269;28;86233;-50
2022/04/13 08:24:11;;;;;;;;;;;8.30;59.50;;;;;;5048993;28;87372;-50
2022/04/13 08:26:36;;;;;;;;;;;8.30;59.60;;;;;;5048177;28;88406;-50
2022/04/13 08:29:03;;;;;;;;;;;8.30;59.40;;;;;;5048270;28;88277;-50
2022/04/13 08:31:29;;;;;;;;;;;8.30;59.50;;;;;;5049097;28;86812;-50
2022/04/13 08:33:54;;;;;;;;;;;8.30;59.40;;;;;;5048236;28;87957;-50
2022/04/13 08:36:20;;;;;;;;;;;8.30;59.30;;;;;;5051811;28;86809;-50
2022/04/13 08:38:45;;;;;;;;;;;8.30;59.30;;;;;;5048525;28;87265;-51
2022/04/13 08:41:25;;;;;;;;;;;8.30;59.40;;;;;;5048570;28;86872;-50
2022/04/13 08:44:00;;;;;;;;;;;8.30;59.40;;;;;;5048596;28;88088;-50
2022/04/13 08:46:26;;;;;;;;;;;8.30;59.40;;;;;;5048870;28;86519;-50
2022/04/13 08:48:55;;;;;;;;;;;8.30;59.50;;;;;;5048313;28;87016;-50
2022/04/13 08:51:21;;;;;;;;;;;8.30;59.40;;;;;;5048326;28;88201;-50
2022/04/13 08:53:48;;;;;;;;;;;8.30;59.40;;;;;;5047494;28;88665;-50
2022/04/13 08:56:16;;;;;;;;;;;8.40;59.50;;;;;;5051148;28;86857;-51
2022/04/13 08:58:50;;;;;;;;;;;8.40;59.40;;;;;;5047917;28;86880;-51
2022/04/13 09:01:20;;;;;;;;;;;8.40;59.40;;;;;;5048206;28;86828;-51
2022/04/13 09:03:48;;;;;;;;;;;8.40;60.00;;;;;;5048176;28;87694;-51
2022/04/13 09:06:14;;;;;;;;;;;8.40;59.40;;;;;;5047732;28;88483;-50
2022/04/13 09:08:48;;;;;;;;;;;8.40;59.40;;;;;;5047927;28;86798;-51
2022/04/13 09:11:14;;;;;;;;;;;8.40;59.30;;;;;;5048630;28;87859;-50
2022/04/13 09:13:40;;;;;;;;;;;8.40;59.40;;;;;;5047530;28;88553;-50
2022/04/13 09:16:06;;;;;;;;;;;8.50;59.40;;;;;;5047834;27;87010;-50
2022/04/13 09:18:31;;;;;;;;;;;8.50;59.40;;;;;;5049855;28;87955;-50
2022/04/13 09:20:58;;;;;;;;;;;8.50;59.40;;;;;;5048120;28;87184;-50
2022/04/13 09:23:25;;;;;;;;;;;8.50;59.40;;;;;;5047535;28;87014;-51
2022/04/13 09:25:53;;;;;;;;;;;8.50;59.30;;;;;;5047453;28;87661;-51
2022/04/13 09:28:20;;;;;;;;;;;8.50;59.40;;;;;;5047413;28;87060;-50
2022/04/13 09:30:45;;;;;;;;;;;8.60;59.50;;;;;;5047757;28;87155;-50
2022/04/13 09:33:11;;;;;;;;;;;8.60;59.40;;;;;;5047457;28;87527;-50
2022/04/13 09:35:37;;;;;;;;;;;8.60;59.50;;;;;;5048389;28;86418;-50
2022/04/13 09:38:06;;;;;;;;;;;8.60;59.60;;;;;;5047619;28;87026;-51
2022/04/13 09:40:36;;;;;;;;;;;8.60;59.60;;;;;;5050071;28;88593;-50
2022/04/13 09:43:05;;;;;;;;;;;8.60;59.80;;;;;;5046917;28;87951;-50
2022/04/13 09:45:50;;;;;;;;;;;8.60;59.50;;;;;;5047256;28;88452;-50
2022/04/13 09:48:20;;;;;;;;;;;8.70;59.40;;;;;;5047393;28;86906;-51
2022/04/13 09:50:46;;;;;;;;;;;8.70;59.30;;;;;;5047399;28;87024;-50
2022/04/13 09:53:12;;;;;;;;;;;8.70;59.30;;;;;;5047291;28;87401;-50
2022/04/13 09:55:43;;;;;;;;;;;8.70;59.30;;;;;;5047404;28;86864;-51
2022/04/13 09:58:10;;;;;;;;;;;8.80;59.60;;;;;;5047281;28;87643;-50
2022/04/13 10:00:36;;;;;;;;;;;8.80;59.70;;;;;;5047473;28;87073;-50
2022/04/13 10:03:07;;;;;;;;;;;8.80;59.60;;;;;;5050205;28;86899;-50
2022/04/13 10:05:33;;;;;;;;;;;8.80;59.50;;;;;;5046845;28;88239;-50
2022/04/13 10:08:10;;;;;;;;;;;8.80;59.30;;;;;;5046427;28;87848;-50
2022/04/13 10:10:39;;;;;;;;;;;8.90;59.30;;;;;;5047136;28;88861;-51
2022/04/13 10:13:04;;;;;;;;;;;8.80;59.20;;;;;;5046814;28;86830;-51
2022/04/13 10:15:30;;;;;;;;;;;8.80;59.40;;;;;;5047383;28;86819;-50
2022/04/13 10:17:57;;;;;;;;;;;8.90;59.50;;;;;;5047048;28;86885;-51
2022/04/13 10:20:22;;;;;;;;;;;8.90;58.60;;;;;;5046580;28;88785;-51
2022/04/13 10:23:01;;;;;;;;;;;8.90;59.20;;;;;;5047312;28;86918;-51
2022/04/13 10:25:27;;;;;;;;;;;9.00;59.00;;;;;;5049948;28;87868;-50
2022/04/13 10:27:54;;;;;;;;;;;9.00;59.00;;;;;;5045670;27;87335;-50
2022/04/13 10:30:27;;;;;;;;;;;9.00;58.80;;;;;;5046575;28;88025;-51
2022/04/13 10:32:59;;;;;;;;;;;9.00;59.60;;;;;;5045729;28;88434;-50
2022/04/13 10:35:26;;;;;;;;;;;9.10;58.60;;;;;;5046712;28;86870;-50
2022/04/13 10:37:52;;;;;;;;;;;9.10;57.60;;;;;;5046743;28;88069;-50
2022/04/13 10:40:19;;;;;;;;;;;9.10;58.90;;;;;;5046654;28;87622;-50
2022/04/13 10:42:46;;;;;;;;;;;9.10;59.00;;;;;;5046649;28;86866;-51
2022/04/13 10:45:13;;;;;;;;;;;9.20;58.50;;;;;;5049098;28;87093;-51
2022/04/13 10:47:41;;;;;;;;;;;9.20;58.90;;;;;;5046587;28;87054;-50
2022/04/13 10:50:08;;;;;;;;;;;9.20;58.30;;;;;;5047660;28;86208;-51
2022/04/13 10:52:34;;;;;;;;;;;9.20;58.20;;;;;;5046229;28;87466;-51
2022/04/13 10:55:04;;;;;;;;;;;9.30;58.10;;;;;;5046498;28;86879;-51
2022/04/13 10:57:34;;;;;;;;;;;9.30;58.20;;;;;;5045942;28;88066;-51
2022/04/13 11:00:02;;;;;;;;;;;9.30;58.40;;;;;;5046410;28;87360;-51
2022/04/13 11:02:29;;;;;;;;;;;9.30;58.60;;;;;;5046843;28;87236;-51
2022/04/13 11:04:56;;;;;;;;;;;9.30;57.70;;;;;;5046382;28;87093;-51
2022/04/13 11:07:24;;;;;;;;;;;9.30;58.10;;;;;;5048899;28;88605;-52
2022/04/13 11:09:51;;;;;;;;;;;9.40;57.80;;;;;;5046310;28;87943;-51
2022/04/13 11:12:17;;;;;;;;;;;9.40;56.40;;;;;;5045948;28;87543;-52
2022/04/13 11:14:48;;;;;;;;;;;9.40;57.80;;;;;;5046806;28;86102;-51
2022/04/13 11:17:14;;;;;;;;;;;9.50;58.60;;;;;;5046244;28;86986;-51
2022/04/13 11:19:40;;;;;;;;;;;9.50;57.80;;;;;;5045831;28;87753;-51
2022/04/13 11:22:06;;;;;;;;;;;9.50;58.30;;;;;;5045833;28;88189;-51
2022/04/13 11:24:33;;;;;;;;;;;9.50;58.20;;;;;;5046083;28;88707;-52
2022/04/13 11:26:58;;;;;;;;;;;9.60;57.30;;;;;;5045543;28;87803;-51
2022/04/13 11:29:31;;;;;;;;;;;9.60;57.40;;;;;;5048991;28;86818;-51
2022/04/13 11:32:00;;;;;;;;;;;9.60;58.20;;;;;;5045950;28;87432;-51
2022/04/13 11:34:30;;;;;;;;;;;9.60;57.90;;;;;;5046012;28;86932;-52
2022/04/13 11:37:00;;;;;;;;;;;9.60;58.00;;;;;;5046108;28;88080;-52
2022/04/13 11:39:46;;;;;;;;;;;9.70;58.10;;;;;;5046666;27;87008;-51
2022/04/13 11:42:20;;;;;;;;;;;9.70;58.00;;;;;;5048976;28;87010;-51
2022/04/13 11:44:47;;;;;;;;;;;9.70;57.80;;;;;;5049668;28;86844;-53
2022/04/13 11:47:13;;;;;;;;;;;9.80;57.80;;;;;;5048181;28;88514;-52
2022/04/13 11:49:59;;;;;;;;;;;9.80;57.80;;;;;;5049345;28;88022;-51
2022/04/13 11:52:48;;;;;;;;;;;9.80;57.90;;;;;;5051404;28;87809;-53
2022/04/13 11:55:19;;;;;;;;;;;9.80;57.80;;;;;;5049220;28;87011;-51
2022/04/13 11:58:01;;;;;;;;;;;9.90;57.90;;;;;;5049388;28;87904;-52
2022/04/13 12:00:39;;;;;;;;;;;9.90;57.30;;;;;;5048760;28;88416;-51
2022/04/13 12:03:08;;;;;;;;;;;9.90;57.60;;;;;;5049259;28;86943;-51
2022/04/13 12:05:44;;;;;;;;;;;9.90;57.00;;;;;;5049041;28;86837;-51
2022/04/13 12:08:14;;;;;;;;;;;10.00;57.40;;;;;;5048597;28;88316;-51
2022/04/13 12:11:00;;;;;;;;;;;10.00;57.20;;;;;;5049271;28;86823;-51
2022/04/13 12:13:26;;;;;;;;;;;10.00;57.40;;;;;;5047757;28;87828;-53
2022/04/13 12:15:54;;;;;;;;;;;10.00;57.40;;;;;;5051464;28;88427;-51
2022/04/13 12:18:20;;;;;;;;;;;10.10;57.30;;;;;;5048873;28;87705;-51
2022/04/13 12:20:47;;;;;;;;;;;10.10;57.50;;;;;;5048452;28;87956;-51
2022/04/13 12:23:19;;;;;;;;;;;10.10;57.20;;;;;;5049112;28;87059;-51
2022/04/13 12:25:45;;;;;;;;;;;10.10;57.00;;;;;;5048821;28;86928;-51
2022/04/13 12:28:11;;;;;;;;;;;10.10;57.10;;;;;;5048096;28;87597;-51
2022/04/13 12:30:37;;;;;;;;;;;10.20;57.20;;;;;;5049136;28;86371;-51
2022/04/13 12:33:21;;;;;;;;;;;10.20;57.10;;;;;;5048943;28;86941;-51
2022/04/13 12:35:47;;;;;;;;;;;10.20;57.00;;;;;;5048391;28;87631;-51
2022/04/13 12:38:23;;;;;;;;;;;10.30;57.00;;;;;;5050871;28;87849;-51
2022/04/13 12:40:49;;;;;;;;;;;10.30;56.60;;;;;;5048217;28;87621;-52
2022/04/13 12:43:25;;;;;;;;;;;10.30;56.10;;;;;;5048533;28;87148;-51
2022/04/13 12:45:51;;;;;;;;;;;10.30;56.40;;;;;;5048509;28;87807;-51
2022/04/13 12:48:16;;;;;;;;;;;10.40;56.50;;;;;;5048300;28;86802;-51
2022/04/13 12:50:58;;;;;;;;;;;10.40;56.10;;;;;;5048249;27;86792;-52
2022/04/13 12:53:25;;;;;;;;;;;10.40;55.80;;;;;;5048231;28;87013;-51
2022/04/13 12:55:52;;;;;;;;;;;10.40;55.80;;;;;;5048509;28;87058;-51
2022/04/13 12:58:17;;;;;;;;;;;10.50;55.90;;;;;;5051542;28;86810;-51
2022/04/13 13:00:47;;;;;;;;;;;10.50;55.90;;;;;;5047984;28;87627;-52
2022/04/13 13:03:13;;;;;;;;;;;10.60;54.80;;;;;;5047551;28;88077;-52
2022/04/13 13:05:39;;;;;;;;;;;10.60;55.80;;;;;;5048168;28;89376;-51
2022/04/13 13:08:05;;;;;;;;;;;10.60;55.10;;;;;;5047815;28;88698;-51
2022/04/13 13:10:34;;;;;;;;;;;10.70;55.70;;;;;;5048027;28;86954;-51
2022/04/13 13:13:14;;;;;;;;;;;10.70;55.20;;;;;;5048116;28;88272;-51
2022/04/13 13:15:39;;;;;;;;;;;10.70;54.20;;;;;;5047705;28;88355;-51
2022/04/13 13:18:08;;;;;;;;;;;10.80;54.90;;;;;;5048023;28;86812;-52
2022/04/13 13:20:35;;;;;;;;;;;10.80;55.30;;;;;;5051271;28;86070;-52
2022/04/13 13:23:06;;;;;;;;;;;10.80;54.50;;;;;;5047921;28;86801;-51
2022/04/13 13:25:39;;;;;;;;;;;10.90;54.80;;;;;;5047906;28;87873;-51
2022/04/13 13:28:05;;;;;;;;;;;10.90;53.90;;;;;;5045998;28;89391;-52
2022/04/13 13:30:36;;;;;;;;;;;10.90;54.80;;;;;;5047798;28;87007;-51
2022/04/13 13:33:02;;;;;;;;;;;11.00;54.70;;;;;;5047838;28;86954;-51
2022/04/13 13:35:32;;;;;;;;;;;11.00;54.30;;;;;;5047608;28;87521;-51
2022/04/13 13:38:10;;;;;;;;;;;11.00;54.50;;;;;;5047603;28;86821;-52
2022/04/13 13:40:36;;;;;;;;;;;11.10;54.60;;;;;;5047601;28;87856;-51
2022/04/13 13:43:05;;;;;;;;;;;11.10;54.50;;;;;;5050097;28;88565;-51
2022/04/13 13:45:32;;;;;;;;;;;11.10;53.60;;;;;;5048059;28;87951;-51
2022/04/13 13:47:58;;;;;;;;;;;11.20;53.70;;;;;;5047032;28;88448;-52
2022/04/13 13:50:24;;;;;;;;;;;11.20;53.90;;;;;;5047830;28;86849;-51
2022/04/13 13:52:50;;;;;;;;;;;11.20;52.90;;;;;;5046831;28;87837;-51
2022/04/13 13:55:26;;;;;;;;;;;11.30;54.10;;;;;;5047293;28;87461;-52
2022/04/13 13:57:52;;;;;;;;;;;11.30;54.20;;;;;;5047368;28;86849;-52
2022/04/13 14:00:18;;;;;;;;;;;11.40;52.30;;;;;;5047356;28;87940;-53
2022/04/13 14:02:52;;;;;;;;;;;11.40;52.60;;;;;;5046279;27;88490;-52
2022/04/13 14:05:22;;;;;;;;;;;11.40;53.50;;;;;;5049934;28;87388;-52
2022/04/13 14:07:47;;;;;;;;;;;11.40;53.70;;;;;;5046846;28;87445;-51
2022/04/13 14:10:13;;;;;;;;;;;11.50;53.60;;;;;;5047960;28;86077;-52
2022/04/13 14:12:39;;;;;;;;;;;11.50;52.80;;;;;;5047162;28;86807;-51
2022/04/13 14:15:05;;;;;;;;;;;11.50;52.80;;;;;;5046809;28;88587;-51
2022/04/13 14:17:31;;;;;;;;;;;11.50;52.70;;;;;;5046438;28;87764;-51
2022/04/13 14:19:56;;;;;;;;;;;11.60;52.50;;;;;;5046986;28;89226;-52
2022/04/13 14:22:22;;;;;;;;;;;11.60;52.60;;;;;;5046801;28;87453;-52
2022/04/13 14:24:49;;;;;;;;;;;11.70;52.50;;;;;;5047334;28;86930;-52
2022/04/13 14:27:14;;;;;;;;;;;11.70;52.50;;;;;;5049101;28;87005;-52
2022/04/13 14:29:40;;;;;;;;;;;11.70;52.20;;;;;;5046726;28;87081;-53
2022/04/13 14:32:06;;;;;;;;;;;11.80;52.20;;;;;;5047034;28;87039;-51
2022/04/13 14:34:32;;;;;;;;;;;11.80;52.00;;;;;;5047003;28;87072;-55
2022/04/13 14:36:57;;;;;;;;;;;11.80;52.20;;;;;;5046728;28;86847;-50
2022/04/13 14:39:23;;;;;;;;;;;11.90;52.90;;;;;;5046828;28;87016;-50
2022/04/13 14:41:49;;;;;;;;;;;11.90;51.90;;;;;;5045317;28;87809;-50
2022/04/13 14:44:14;;;;;;;;;;;12.00;51.50;;;;;;5046678;28;86950;-50
2022/04/13 14:46:40;;;;;;;;;;;12.00;51.50;;;;;;5046859;28;86857;-51
2022/04/13 14:49:06;;;;;;;;;;;12.00;51.80;;;;;;5049356;28;86848;-51
2022/04/13 14:51:32;;;;;;;;;;;12.10;52.10;;;;;;5046823;28;86782;-51
2022/04/13 14:53:58;;;;;;;;;;;12.10;52.00;;;;;;5046187;28;87738;-50
2022/04/13 14:56:23;;;;;;;;;;;12.20;52.30;;;;;;5046477;28;86841;-51
2022/04/13 14:58:49;;;;;;;;;;;12.20;51.50;;;;;;5046898;28;88026;-53
2022/04/13 15:01:15;;;;;;;;;;;12.20;51.90;;;;;;5046013;28;88531;-50
2022/04/13 15:03:40;;;;;;;;;;;12.30;52.50;;;;;;5046438;28;86956;-51
2022/04/13 15:06:06;;;;;;;;;;;12.30;51.70;;;;;;5046073;28;87804;-52
2022/04/13 15:08:32;;;;;;;;;;;12.30;51.70;;;;;;5048615;28;88659;-54
2022/04/13 15:10:58;;;;;;;;;;;12.30;51.90;;;;;;5046712;28;86818;-50
2022/04/13 15:13:23;;;;;;;;;;;12.30;52.00;;;;;;5045937;28;88520;-52
2022/04/13 15:15:49;;;;;;;;;;;12.40;52.10;;;;;;5048951;27;86869;-51
2022/04/13 15:18:15;;;;;;;;;;;12.40;51.30;;;;;;5049881;28;88317;-50
2022/04/13 15:20:40;;;;;;;;;;;12.40;51.90;;;;;;5049429;28;88575;-51
2022/04/13 15:23:06;;;;;;;;;;;12.50;51.80;;;;;;5050245;28;86284;-51
2022/04/13 15:25:31;;;;;;;;;;;12.40;51.30;;;;;;5050180;28;86846;-51
2022/04/13 15:27:57;;;;;;;;;;;12.40;51.20;;;;;;5048852;28;88598;-51
2022/04/13 15:30:23;;;;;;;;;;;12.50;51.20;;;;;;5052347;28;87773;-50
2022/04/13 15:32:50;;;;;;;;;;;12.50;51.90;;;;;;5049145;28;88469;-51
2022/04/13 15:35:16;;;;;;;;;;;12.50;51.50;;;;;;5049614;28;86879;-51
2022/04/13 15:37:42;;;;;;;;;;;12.50;51.80;;;;;;5049540;28;87880;-50
2022/04/13 15:40:10;;;;;;;;;;;12.60;51.30;;;;;;5049513;28;87581;-50
2022/04/13 15:42:35;;;;;;;;;;;12.50;51.20;;;;;;5049863;28;87269;-51
2022/04/13 15:45:03;;;;;;;;;;;12.60;51.30;;;;;;5048949;28;86888;-50
2022/04/13 15:47:29;;;;;;;;;;;12.60;50.90;;;;;;5049223;28;86191;-51
2022/04/13 15:49:54;;;;;;;;;;;12.60;51.20;;;;;;5048780;28;86822;-51
2022/04/13 15:52:22;;;;;;;;;;;12.70;51.50;;;;;;5051247;28;87122;-53
2022/04/13 15:54:51;;;;;;;;;;;12.70;51.00;;;;;;5048162;28;87861;-51
2022/04/13 15:57:16;;;;;;;;;;;12.70;50.90;;;;;;5047778;28;90400;-51
2022/04/13 15:59:42;;;;;;;;;;;12.70;50.60;;;;;;5048330;28;88355;-51
2022/04/13 16:02:07;;;;;;;;;;;12.80;51.20;;;;;;5048956;28;86893;-53
2022/04/13 16:04:33;;;;;;;;;;;12.80;51.00;;;;;;5048590;28;87054;-51
2022/04/13 16:06:59;;;;;;;;;;;12.80;51.00;;;;;;5048636;28;87878;-51
2022/04/13 16:09:24;;;;;;;;;;;12.90;50.50;;;;;;5048835;28;86901;-51
2022/04/13 16:11:51;;;;;;;;;;;12.90;50.80;;;;;;5049051;28;87993;-51
2022/04/13 16:14:17;;;;;;;;;;;12.90;51.00;;;;;;5051075;28;88447;-52
2022/04/13 16:16:42;;;;;;;;;;;12.90;50.80;;;;;;5048521;28;87135;-50
2022/04/13 16:19:08;;;;;;;;;;;12.90;50.30;;;;;;5047425;28;88861;-53
2022/04/13 16:21:34;;;;;;;;;;;13.00;50.60;;;;;;5048399;28;86841;-51
2022/04/13 16:24:00;;;;;;;;;;;13.00;50.50;;;;;;5048628;28;86906;-51
2022/04/13 16:26:25;;;;;;;;;;;13.00;50.80;;;;;;5046894;27;87451;-51
2022/04/13 16:28:51;;;;;;;;;;;13.00;50.40;;;;;;5048460;28;86846;-51
2022/04/13 16:31:17;;;;;;;;;;;13.00;50.70;;;;;;5048588;28;87323;-51
2022/04/13 16:33:42;;;;;;;;;;;13.00;50.50;;;;;;5048262;28;88327;-52
2022/04/13 16:36:08;;;;;;;;;;;13.10;50.70;;;;;;5052019;28;86139;-51
2022/04/13 16:38:34;;;;;;;;;;;13.10;50.60;;;;;;5048423;28;87028;-53
2022/04/13 16:41:01;;;;;;;;;;;13.10;51.20;;;;;;5048567;28;87260;-51
2022/04/13 16:43:26;;;;;;;;;;;13.10;51.00;;;;;;5048299;28;87779;-51
2022/04/13 16:45:52;;;;;;;;;;;13.10;51.50;;;;;;5048059;28;88344;-51